Time;durP1;ratioP1;P1;durP2;ratioP2;P2;SDS_P1;SDS_P2;PMS_P1;PMS_P2;Temp;Humidity;BMP_temperature;BMP_pressure;BME280_temperature;BME280_humidity;BME280_pressure;Samples;Min_cycle;Max_cycle;Signal;HPM_P1;HPM_P2
2024/01/04 00:02:13;;;;;;;;;13.75;13.25;;;;;;;;5098743;27;45412;-73
2024/01/04 00:04:40;;;;;;;;;10.25;9.00;;;;;;;;5098996;27;45515;-73
2024/01/04 00:07:05;;;;;;;;;11.00;8.00;;;;;;;;5080574;27;45730;-72
2024/01/04 00:09:30;;;;;;;;;17.50;15.25;;;;;;;;5098645;27;45317;-72
2024/01/04 00:11:56;;;;;;;;;20.00;17.25;;;;;;;;5099063;27;45295;-72
2024/01/04 00:14:21;;;;;;;;;31.50;25.00;;;;;;;;5098833;27;45541;-73
2024/01/04 00:16:46;;;;;;;;;33.25;29.00;;;;;;;;5098259;27;45482;-72
2024/01/04 00:19:12;;;;;;;;;32.00;28.00;;;;;;;;5098394;27;45461;-72
2024/01/04 00:21:37;;;;;;;;;39.50;30.75;;;;;;;;5080193;27;45254;-73
2024/01/04 00:24:03;;;;;;;;;31.75;28.75;;;;;;;;5098972;27;45508;-72
2024/01/04 00:26:28;;;;;;;;;40.50;35.50;;;;;;;;5097091;27;45853;-72
2024/01/04 00:28:54;;;;;;;;;26.50;21.25;;;;;;;;5098219;27;45484;-72
2024/01/04 00:31:19;;;;;;;;;21.25;17.25;;;;;;;;5098375;27;45439;-73
2024/01/04 00:33:44;;;;;;;;;27.50;21.50;;;;;;;;5098562;27;45202;-73
2024/01/04 00:36:10;;;;;;;;;24.75;20.00;;;;;;;;5097982;27;46127;-73
2024/01/04 00:38:35;;;;;;;;;23.25;20.75;;;;;;;;5098433;27;45141;-73
2024/01/04 00:41:01;;;;;;;;;32.50;23.25;;;;;;;;5098150;27;45615;-72
2024/01/04 00:43:26;;;;;;;;;52.25;38.00;;;;;;;;5098364;27;45238;-73
2024/01/04 00:45:52;;;;;;;;;41.50;33.50;;;;;;;;5097952;27;45314;-72
2024/01/04 00:48:17;;;;;;;;;35.25;27.00;;;;;;;;5098005;27;45164;-73
2024/01/04 00:50:42;;;;;;;;;19.50;16.50;;;;;;;;5079723;27;45209;-73
2024/01/04 00:53:08;;;;;;;;;19.25;13.50;;;;;;;;5098567;27;45278;-73
2024/01/04 00:55:33;;;;;;;;;6.75;3.00;;;;;;;;5098012;27;45227;-72
2024/01/04 00:58:03;;;;;;;;;10.75;7.00;;;;;;;;5097801;27;45378;-72
2024/01/04 01:00:29;;;;;;;;;13.50;10.00;;;;;;;;5098119;27;45298;-73
2024/01/04 01:02:54;;;;;;;;;12.50;10.00;;;;;;;;5098078;27;45438;-72
2024/01/04 01:05:20;;;;;;;;;11.25;8.00;;;;;;;;5097800;27;45975;-72
2024/01/04 01:07:45;;;;;;;;;13.50;9.00;;;;;;;;5097801;27;45431;-73
2024/01/04 01:10:10;;;;;;;;;14.00;11.75;;;;;;;;5097709;27;45180;-73
2024/01/04 01:12:36;;;;;;;;;9.00;8.25;;;;;;;;5098219;27;45456;-73
2024/01/04 01:15:01;;;;;;;;;11.75;9.75;;;;;;;;5097660;27;45217;-73
2024/01/04 01:17:27;;;;;;;;;6.50;5.25;;;;;;;;5097493;27;45294;-72
2024/01/04 01:19:52;;;;;;;;;6.25;4.00;;;;;;;;5097586;27;45548;-72
2024/01/04 01:22:17;;;;;;;;;1.50;1.50;;;;;;;;5097839;27;45401;-73
2024/01/04 01:24:43;;;;;;;;;10.00;7.75;;;;;;;;5097477;27;45883;-73
2024/01/04 01:27:08;;;;;;;;;29.75;26.50;;;;;;;;5097778;27;45394;-73
2024/01/04 01:29:33;;;;;;;;;19.75;18.25;;;;;;;;5097780;27;45254;-73
2024/01/04 01:31:59;;;;;;;;;31.75;20.75;;;;;;;;5097875;27;45477;-72
2024/01/04 01:34:24;;;;;;;;;28.75;22.00;;;;;;;;5097335;27;45312;-73
2024/01/04 01:36:49;;;;;;;;;24.00;19.50;;;;;;;;5097317;27;45409;-73
2024/01/04 01:51:33;;;;;;;;;19.50;18.00;;;;;10.26;65.63;100378.69;5152621;27;45271;-73
2024/01/04 01:53:59;;;;;;;;;18.50;17.25;;;;;10.38;65.24;100371.22;5135444;27;45799;-73
2024/01/04 01:56:25;;;;;;;;;30.25;22.00;;;;;10.40;65.03;100366.94;5135787;27;45601;-73
2024/01/04 01:58:51;;;;;;;;;24.75;22.75;;;;;10.27;64.72;100338.72;5136007;27;45374;-73
2024/01/04 02:01:17;;;;;;;;;26.00;24.50;;;;;10.41;65.01;100363.50;5134168;27;45544;-73
2024/01/04 02:03:43;;;;;;;;;25.25;22.50;;;;;10.27;64.93;100341.31;5135428;27;45308;-73
2024/01/04 02:06:08;;;;;;;;;20.50;17.25;;;;;10.32;65.02;100355.41;5135568;27;45395;-73
2024/01/04 02:08:34;;;;;;;;;19.00;15.25;;;;;10.27;64.86;100347.41;5135717;27;45299;-73
2024/01/04 02:11:00;;;;;;;;;19.75;17.00;;;;;10.31;64.96;100357.13;5135306;27;46222;-73
2024/01/04 02:13:25;;;;;;;;;11.50;8.50;;;;;10.21;64.88;100346.38;5135470;27;45526;-73
2024/01/04 02:15:51;;;;;;;;;14.25;10.00;;;;;10.34;64.81;100375.50;5135332;27;45390;-73
2024/01/04 02:18:17;;;;;;;;;8.50;7.75;;;;;10.36;64.60;100372.91;5135321;27;46038;-73
2024/01/04 02:20:42;;;;;;;;;11.50;9.00;;;;;10.26;65.03;100378.69;5134913;27;46098;-73
2024/01/04 02:23:15;;;;;;;;;10.50;8.50;;;;;10.21;65.01;100375.09;5135102;27;45533;-73
2024/01/04 02:25:40;;;;;;;;;8.50;7.00;;;;;10.10;64.91;100353.88;5135129;27;45453;-73
2024/01/04 02:28:07;;;;;;;;;6.50;3.00;;;;;10.19;64.89;100363.72;5135590;27;45221;-73
2024/01/04 02:30:33;;;;;;;;;3.75;3.25;;;;;10.15;64.99;100360.13;5135293;27;45359;-73
2024/01/04 02:33:00;;;;;;;;;3.75;3.00;;;;;10.13;64.86;100354.84;5134961;27;45517;-73
2024/01/04 02:35:25;;;;;;;;;5.25;3.25;;;;;10.12;65.11;100355.69;5135475;27;45404;-73
2024/01/04 02:37:52;;;;;;;;;7.00;6.00;;;;;10.09;64.99;100350.41;5135171;27;45362;-73
2024/01/04 02:40:18;;;;;;;;;4.00;4.00;;;;;10.03;64.59;100341.50;5134819;27;45326;-73
2024/01/04 02:42:44;;;;;;;;;6.00;5.00;;;;;9.89;65.81;100312.41;5134902;27;45423;-73
2024/01/04 02:45:10;;;;;;;;;11.00;7.50;;;;;10.01;65.23;100333.63;5134769;27;45314;-73
2024/01/04 02:47:36;;;;;;;;;2.75;1.75;;;;;10.00;64.90;100330.97;5134972;27;45511;-73
2024/01/04 02:50:02;;;;;;;;;14.00;7.75;;;;;9.80;65.24;100294.75;5134349;27;45492;-73
2024/01/04 02:52:28;;;;;;;;;10.25;7.75;;;;;9.98;65.47;100328.31;5120486;27;45438;-73
2024/01/04 02:54:54;;;;;;;;;8.75;7.50;;;;;9.96;65.61;100319.56;5120959;27;45421;-73
2024/01/04 02:57:19;;;;;;;;;13.00;9.00;;;;;9.70;65.43;100279.66;5120789;27;45430;-73
2024/01/04 02:59:45;;;;;;;;;1.00;0.00;;;;;9.98;65.69;100322.22;5120874;27;45379;-73
2024/01/04 03:02:11;;;;;;;;;2.00;2.00;;;;;9.83;65.73;100278.28;5120844;27;45402;-73
2024/01/04 03:04:40;;;;;;;;;7.00;4.00;;;;;10.00;65.50;100310.97;5119553;27;45462;-73
2024/01/04 03:07:06;;;;;;;;;3.75;2.50;;;;;10.00;64.93;100300.53;5120985;27;45424;-73
2024/01/04 03:09:32;;;;;;;;;6.00;3.50;;;;;9.84;65.32;100275.72;5120610;27;45980;-73
2024/01/04 03:11:58;;;;;;;;;4.00;3.00;;;;;9.95;65.25;100297.81;5121037;27;45512;-73
2024/01/04 03:14:23;;;;;;;;;6.00;3.50;;;;;9.69;65.33;100255.31;5120797;27;45276;-73
2024/01/04 03:16:49;;;;;;;;;6.75;4.00;;;;;9.92;64.91;100296.81;5120974;27;45926;-73
2024/01/04 03:19:14;;;;;;;;;4.00;2.00;;;;;9.91;65.02;100295.06;5120386;27;46344;-73
2024/01/04 03:21:40;;;;;;;;;3.00;3.00;;;;;9.88;65.00;100293.25;5120395;27;45335;-73
2024/01/04 03:24:05;;;;;;;;;2.25;2.25;;;;;9.87;64.88;100286.28;5120703;27;45446;-73
2024/01/04 03:26:32;;;;;;;;;2.00;2.00;;;;;9.86;64.88;100279.25;5120589;27;45369;-73
2024/01/04 03:28:58;;;;;;;;;2.00;2.00;;;;;9.62;64.84;100242.06;5120386;27;46181;-73
2024/01/04 03:31:23;;;;;;;;;1.25;1.00;;;;;9.83;64.99;100276.59;5120348;27;45364;-73
2024/01/04 03:33:49;;;;;;;;;3.75;3.00;;;;;9.83;65.22;100273.97;5120304;27;45258;-73
2024/01/04 03:36:15;;;;;;;;;1.50;1.00;;;;;9.66;65.32;100243.91;5120233;27;45476;-72
2024/01/04 03:38:41;;;;;;;;;2.00;1.00;;;;;9.81;65.02;100269.53;5119997;27;46101;-73
2024/01/04 03:41:07;;;;;;;;;4.75;2.75;;;;;9.80;65.12;100265.16;5119847;27;45513;-73
2024/01/04 03:43:34;;;;;;;;;2.00;2.00;;;;;9.78;65.06;100262.50;5120216;27;45481;-73
2024/01/04 03:45:59;;;;;;;;;2.00;1.00;;;;;9.78;64.66;100257.28;5120631;27;45278;-73
2024/01/04 03:48:25;;;;;;;;;1.00;1.00;;;;;9.78;64.97;100251.19;5119932;27;45564;-73
2024/01/04 03:50:50;;;;;;;;;2.00;1.00;;;;;9.76;64.86;100246.81;5119726;27;45398;-73
2024/01/04 03:53:16;;;;;;;;;0.00;0.00;;;;;9.77;64.92;100247.72;5120020;27;45353;-73
2024/01/04 03:55:42;;;;;;;;;0.00;0.00;;;;;9.57;65.16;100205.41;5120077;27;45514;-73
2024/01/04 03:58:07;;;;;;;;;0.00;0.00;;;;;9.79;64.89;100234.69;5119702;27;45949;-73
2024/01/04 04:00:33;;;;;;;;;1.00;0.25;;;;;9.60;64.77;100205.50;5119701;27;45922;-73
2024/01/04 04:02:58;;;;;;;;;0.00;0.00;;;;;9.78;65.00;100233.81;5119050;27;45453;-73
2024/01/04 04:05:24;;;;;;;;;0.00;0.00;;;;;9.67;64.93;100206.53;5119928;27;45320;-73
2024/01/04 04:07:50;;;;;;;;;1.00;0.25;;;;;9.84;64.85;100228.75;5119559;27;46022;-73
2024/01/04 04:10:16;;;;;;;;;0.00;0.00;;;;;9.89;64.88;100219.34;5119587;27;46100;-73
2024/01/04 04:12:41;;;;;;;;;1.00;0.75;;;;;9.96;64.86;100210.84;5119624;27;45459;-73
2024/01/04 04:15:08;;;;;;;;;1.00;0.00;;;;;10.02;64.73;100210.13;5119857;27;45449;-73
2024/01/04 04:17:34;;;;;;;;;0.00;0.00;;;;;10.08;64.78;100210.28;5119404;27;46556;-73
2024/01/04 04:20:01;;;;;;;;;1.00;0.00;;;;;10.13;64.44;100208.69;5119751;27;45290;-73
2024/01/04 04:22:26;;;;;;;;;0.00;0.00;;;;;9.95;64.44;100166.47;5118256;27;45353;-73
2024/01/04 04:24:52;;;;;;;;;1.00;0.00;;;;;10.07;64.27;100166.78;5119681;27;45371;-73
2024/01/04 04:27:17;;;;;;;;;0.00;0.00;;;;;10.31;64.19;100194.38;5119307;27;46143;-73
2024/01/04 04:29:43;;;;;;;;;0.25;0.00;;;;;10.15;63.93;100153.91;5119351;27;45389;-73
2024/01/04 04:32:08;;;;;;;;;0.50;0.00;;;;;10.38;64.07;100191.06;5119820;27;45733;-73
2024/01/04 04:34:37;;;;;;;;;1.00;1.00;;;;;10.28;64.09;100165.53;5119398;27;45496;-73
2024/01/04 04:37:03;;;;;;;;;1.00;0.00;;;;;10.38;63.88;100183.22;5119268;27;45246;-73
2024/01/04 04:39:28;;;;;;;;;1.00;0.00;;;;;10.27;63.69;100158.56;5119142;27;45457;-73
2024/01/04 04:41:54;;;;;;;;;0.75;0.00;;;;;10.31;64.15;100163.94;5119644;27;45434;-73
2024/01/04 04:44:20;;;;;;;;;0.00;0.00;;;;;10.10;63.80;100132.03;5119440;27;45357;-73
2024/01/04 04:46:46;;;;;;;;;0.00;0.00;;;;;10.34;63.76;100169.25;5118994;27;45520;-73
2024/01/04 04:49:12;;;;;;;;;0.00;0.00;;;;;10.31;63.73;100158.72;5118908;27;45340;-73
2024/01/04 04:51:37;;;;;;;;;0.00;0.00;;;;;10.29;63.82;100154.28;5119079;27;45336;-73
2024/01/04 04:54:03;;;;;;;;;0.00;0.00;;;;;10.27;63.69;100153.34;5119463;27;45491;-73
2024/01/04 04:56:29;;;;;;;;;0.00;0.00;;;;;10.22;63.92;100155.81;5118858;27;46119;-73
2024/01/04 04:58:54;;;;;;;;;0.00;0.00;;;;;10.24;63.92;100146.31;5118760;27;45371;-72
2024/01/04 05:01:20;;;;;;;;;0.00;0.00;;;;;10.22;63.58;100144.50;5118738;27;45609;-73
2024/01/04 05:03:46;;;;;;;;;0.25;0.00;;;;;9.97;63.62;100089.09;5118856;27;45447;-73
2024/01/04 05:06:12;;;;;;;;;0.00;0.00;;;;;9.95;63.45;100083.84;5118349;27;45859;-73
2024/01/04 05:08:37;;;;;;;;;0.00;0.00;;;;;10.24;63.43;100137.59;5118677;27;45526;-72
2024/01/04 05:11:06;;;;;;;;;0.50;0.00;;;;;10.26;63.69;100139.38;5117963;27;45436;-72
2024/01/04 05:13:32;;;;;;;;;0.00;0.00;;;;;10.26;63.25;100144.59;5119196;27;45533;-73
2024/01/04 05:15:58;;;;;;;;;0.00;0.00;;;;;10.23;63.58;100135.84;5134705;27;46513;-72
2024/01/04 05:18:24;;;;;;;;;1.00;0.00;;;;;10.27;63.74;100143.78;5118642;27;45495;-72
2024/01/04 05:20:49;;;;;;;;;0.00;0.00;;;;;10.14;63.53;100119.09;5118588;27;45529;-72
2024/01/04 05:23:15;;;;;;;;;0.50;0.00;;;;;10.28;63.14;100129.00;5118927;27;45299;-72
2024/01/04 05:25:40;;;;;;;;;0.00;0.00;;;;;10.26;63.62;100118.50;5118684;27;46055;-73
2024/01/04 05:28:06;;;;;;;;;0.00;0.00;;;;;10.26;63.35;100120.25;5119112;27;45516;-72
2024/01/04 05:30:32;;;;;;;;;0.00;0.00;;;;;10.26;63.52;100115.91;5119074;27;45775;-72
2024/01/04 05:32:57;;;;;;;;;0.00;0.00;;;;;10.29;63.51;100115.97;5118650;27;45419;-72
2024/01/04 05:35:23;;;;;;;;;1.75;0.00;;;;;10.32;63.23;100116.06;5118295;27;45505;-73
2024/01/04 05:37:48;;;;;;;;;1.00;0.00;;;;;10.36;63.34;100117.03;5118156;27;45319;-73
2024/01/04 05:40:14;;;;;;;;;0.00;0.00;;;;;9.94;63.37;100042.03;5118363;27;45472;-72
2024/01/04 05:42:40;;;;;;;;;0.00;0.00;;;;;10.22;63.53;100087.06;5118573;27;45531;-73
2024/01/04 05:45:07;;;;;;;;;0.00;0.00;;;;;10.42;63.29;100117.19;5118440;27;46103;-73
2024/01/04 05:47:33;;;;;;;;;0.50;0.00;;;;;10.45;63.49;100112.03;5118499;27;45420;-72
2024/01/04 05:49:58;;;;;;;;;2.50;0.00;;;;;10.49;63.17;100103.44;5118411;27;45259;-72
2024/01/04 05:52:24;;;;;;;;;0.00;0.00;;;;;10.54;63.25;100099.22;5118668;27;45310;-72
2024/01/04 05:54:49;;;;;;;;;0.00;0.00;;;;;10.59;63.22;100098.44;5118385;27;46045;-73
2024/01/04 05:57:17;;;;;;;;;0.00;0.00;;;;;10.61;63.14;100102.81;5118273;27;45415;-72
2024/01/04 05:59:43;;;;;;;;;0.75;0.00;;;;;10.62;63.11;100103.69;5118243;27;45294;-72
2024/01/04 06:02:09;;;;;;;;;0.00;0.00;;;;;10.50;62.75;100076.47;5118502;27;45468;-72
2024/01/04 06:04:34;;;;;;;;;1.50;0.00;;;;;10.65;62.87;100093.34;5118115;27;45472;-73
2024/01/04 06:07:00;;;;;;;;;1.00;0.00;;;;;10.63;62.97;100095.03;5117831;27;45481;-72
2024/01/04 06:09:26;;;;;;;;;0.00;0.00;;;;;10.66;62.70;100097.69;5117990;27;45525;-72
2024/01/04 06:11:52;;;;;;;;;3.75;2.50;;;;;10.69;62.75;100095.16;5117822;27;45496;-72
2024/01/04 06:14:18;;;;;;;;;4.00;3.00;;;;;10.72;62.91;100092.59;5117594;27;45987;-73
2024/01/04 06:16:43;;;;;;;;;7.50;6.50;;;;;10.73;62.70;100097.00;5117628;27;45604;-72
2024/01/04 06:19:09;;;;;;;;;1.75;1.00;;;;;10.74;62.45;100088.28;5117812;27;45299;-72
2024/01/04 06:21:35;;;;;;;;;1.00;1.00;;;;;10.77;62.44;100080.53;5118383;27;45500;-72
2024/01/04 06:24:01;;;;;;;;;0.00;0.00;;;;;10.76;62.30;100070.91;5117593;27;46244;-72
2024/01/04 06:26:26;;;;;;;;;0.00;0.00;;;;;10.80;62.35;100075.34;5119026;27;45480;-72
2024/01/04 06:28:52;;;;;;;;;0.00;0.00;;;;;10.72;62.44;100054.31;5121328;27;45501;-72
2024/01/04 06:31:18;;;;;;;;;6.50;4.75;;;;;10.79;62.30;100073.63;5121544;27;45436;-72
2024/01/04 06:33:43;;;;;;;;;5.00;4.25;;;;;10.78;62.31;100069.22;5121055;27;45336;-72
2024/01/04 06:36:09;;;;;;;;;4.25;3.00;;;;;10.78;62.30;100079.69;5121447;27;45274;-72
2024/01/04 06:38:35;;;;;;;;;5.75;4.00;;;;;10.68;62.14;100056.81;5120117;27;45506;-72
2024/01/04 06:41:03;;;;;;;;;5.00;3.00;;;;;10.78;61.90;100078.81;5121665;27;45955;-72
2024/01/04 06:43:30;;;;;;;;;2.50;2.00;;;;;10.63;61.95;100048.88;5121079;27;45496;-72
2024/01/04 06:45:56;;;;;;;;;1.25;1.00;;;;;10.77;62.00;100071.81;5121020;27;45307;-72
2024/01/04 06:48:22;;;;;;;;;0.50;0.50;;;;;10.75;62.01;100071.78;5121251;27;45221;-72
2024/01/04 06:50:47;;;;;;;;;1.00;0.75;;;;;10.69;62.05;100055.97;5121081;27;45470;-72
2024/01/04 06:53:16;;;;;;;;;1.00;0.25;;;;;10.73;61.98;100066.53;5120872;27;45492;-72
2024/01/04 06:55:42;;;;;;;;;1.00;1.00;;;;;10.79;61.84;100059.69;5121389;27;45460;-72
2024/01/04 06:58:09;;;;;;;;;4.00;4.00;;;;;10.76;61.52;100047.41;5137192;27;45382;-72
2024/01/04 07:00:35;;;;;;;;;2.75;2.50;;;;;10.81;61.65;100065.81;5121152;27;45430;-72
2024/01/04 07:03:01;;;;;;;;;1.00;1.00;;;;;10.82;61.52;100060.59;5119431;27;45304;-72
2024/01/04 07:05:27;;;;;;;;;0.50;0.50;;;;;10.66;61.47;100016.72;5120647;27;45472;-73
2024/01/04 07:07:52;;;;;;;;;0.25;0.00;;;;;10.75;61.16;100022.16;5120968;27;45303;-73
2024/01/04 07:10:18;;;;;;;;;1.25;0.00;;;;;10.94;61.02;100047.81;5121112;27;45511;-73
2024/01/04 07:12:44;;;;;;;;;2.00;1.25;;;;;10.99;60.86;100047.91;5120678;27;45390;-72
2024/01/04 07:15:10;;;;;;;;;0.25;0.00;;;;;11.03;60.70;100065.41;5120685;27;45474;-72
2024/01/04 07:17:36;;;;;;;;;5.50;4.50;;;;;11.08;60.22;100053.31;5120733;27;45543;-72
2024/01/04 07:20:03;;;;;;;;;3.75;2.50;;;;;11.07;60.36;100058.50;5120555;27;45447;-72
2024/01/04 07:22:29;;;;;;;;;7.75;5.50;;;;;11.16;59.84;100050.88;5120506;27;45619;-73
2024/01/04 07:24:56;;;;;;;;;8.50;8.50;;;;;11.20;59.63;100046.53;5120396;27;45390;-72
2024/01/04 07:27:21;;;;;;;;;3.50;3.00;;;;;11.03;59.48;100022.72;5120560;27;45249;-72
2024/01/04 07:29:47;;;;;;;;;3.50;2.50;;;;;11.20;59.24;100030.84;5120477;27;45298;-72
2024/01/04 07:32:16;;;;;;;;;12.00;8.75;;;;;11.28;58.70;100024.03;5120666;27;45350;-72
2024/01/04 07:34:41;;;;;;;;;15.00;10.00;;;;;11.38;58.59;100040.78;5120593;27;45302;-72
2024/01/04 07:37:07;;;;;;;;;23.25;19.50;;;;;11.45;58.62;100034.81;5120126;27;45582;-73
2024/01/04 07:39:33;;;;;;;;;16.25;15.50;;;;;11.45;58.41;100038.31;5120271;27;45348;-73
2024/01/04 07:41:59;;;;;;;;;25.25;24.75;;;;;11.45;58.60;100048.78;5119979;27;45236;-73
2024/01/04 07:44:24;;;;;;;;;17.00;15.50;;;;;11.47;58.52;100054.03;5119978;27;45447;-73
2024/01/04 07:46:50;;;;;;;;;10.75;9.75;;;;;11.35;58.10;100039.88;5120181;27;45339;-73
2024/01/04 07:49:15;;;;;;;;;10.75;10.25;;;;;11.41;58.31;100036.50;5120220;27;45330;-73
2024/01/04 07:51:44;;;;;;;;;5.00;4.25;;;;;11.28;58.24;100016.19;5120318;27;45405;-72
2024/01/04 07:54:10;;;;;;;;;22.50;19.50;;;;;11.48;58.15;100058.41;5120155;27;45513;-73
2024/01/04 07:56:35;;;;;;;;;7.25;5.50;;;;;11.23;57.79;100004.78;5119716;27;45492;-73
2024/01/04 07:59:01;;;;;;;;;4.00;4.00;;;;;11.56;57.84;100049.00;5119335;27;45732;-73
2024/01/04 08:01:26;;;;;;;;;9.00;9.00;;;;;11.59;58.05;100049.03;5119387;27;45451;-73
2024/01/04 08:03:52;;;;;;;;;2.00;2.00;;;;;11.61;57.87;100049.94;5119654;27;45364;-73
2024/01/04 08:06:18;;;;;;;;;4.25;4.00;;;;;11.66;57.66;100052.66;5118360;27;45385;-73
2024/01/04 08:08:43;;;;;;;;;2.25;1.00;;;;;11.71;57.98;100056.22;5120299;27;45372;-73
2024/01/04 08:11:09;;;;;;;;;2.00;2.00;;;;;11.54;57.51;100003.63;5119939;27;45443;-73
2024/01/04 08:13:35;;;;;;;;;2.25;1.75;;;;;11.91;56.99;100044.38;5119713;27;45447;-73
2024/01/04 08:16:01;;;;;;;;;3.00;3.00;;;;;12.02;57.22;100025.38;5119755;27;45319;-73
2024/01/04 08:18:27;;;;;;;;;3.00;2.00;;;;;12.14;56.85;100010.72;5120023;27;45281;-73
2024/01/04 08:20:52;;;;;;;;;6.50;4.25;;;;;11.94;56.32;99950.22;5119380;27;46080;-73
2024/01/04 08:23:18;;;;;;;;;3.00;3.00;;;;;12.40;56.61;99991.88;5119670;27;45497;-73
2024/01/04 08:25:44;;;;;;;;;2.00;2.00;;;;;12.54;56.23;100000.78;5120078;27;45330;-73
2024/01/04 08:28:10;;;;;;;;;1.00;1.00;;;;;12.52;56.00;99985.91;5119684;27;45233;-72
2024/01/04 08:30:36;;;;;;;;;4.00;4.00;;;;;12.75;54.99;99996.66;5119452;27;46141;-73
2024/01/04 08:33:01;;;;;;;;;3.75;3.00;;;;;12.84;55.26;99981.06;5119411;27;45535;-73
2024/01/04 08:35:27;;;;;;;;;7.25;6.00;;;;;12.98;54.41;99986.47;5119580;27;45296;-73
2024/01/04 08:37:52;;;;;;;;;3.50;3.00;;;;;13.07;53.99;99956.84;5119768;27;45489;-73
2024/01/04 08:40:18;;;;;;;;;5.75;5.00;;;;;13.23;53.51;99966.63;5119163;27;45288;-73
2024/01/04 08:42:44;;;;;;;;;6.25;6.00;;;;;13.31;52.69;99962.38;5119451;27;45371;-73
2024/01/04 08:45:13;;;;;;;;;7.50;6.25;;;;;13.45;53.20;99966.84;5119149;27;45374;-73
2024/01/04 08:47:39;;;;;;;;;7.50;6.00;;;;;13.46;53.24;99952.88;5119529;27;45749;-73
2024/01/04 08:50:06;;;;;;;;;4.50;4.00;;;;;13.51;52.93;99946.81;5117996;27;46170;-73
2024/01/04 08:52:32;;;;;;;;;4.00;4.00;;;;;13.70;52.06;99963.56;5118835;27;45486;-73
2024/01/04 08:54:58;;;;;;;;;2.50;2.00;;;;;13.58;52.03;99931.97;5118941;27;45556;-72
2024/01/04 08:57:23;;;;;;;;;2.50;1.50;;;;;13.65;52.26;99936.44;5119097;27;45415;-73
2024/01/04 08:59:49;;;;;;;;;0.00;0.00;;;;;13.89;51.13;99964.59;5118640;27;46199;-73
2024/01/04 09:02:15;;;;;;;;;4.00;4.00;;;;;13.91;51.53;99955.00;5119246;27;46106;-73
2024/01/04 09:04:41;;;;;;;;;4.50;4.00;;;;;14.03;51.65;99962.06;5119036;27;45302;-72
2024/01/04 09:07:08;;;;;;;;;2.00;2.00;;;;;14.10;50.99;99961.22;5119226;27;45455;-73
2024/01/04 09:09:34;;;;;;;;;1.00;1.00;;;;;14.24;50.74;99957.81;5118622;27;45384;-73
2024/01/04 09:12:00;;;;;;;;;2.00;2.00;;;;;14.12;50.21;99924.47;5118665;27;45157;-73
2024/01/04 09:14:26;;;;;;;;;1.00;1.00;;;;;14.49;50.37;99962.31;5118348;27;45374;-72
2024/01/04 09:16:52;;;;;;;;;1.00;1.00;;;;;14.64;49.76;99958.94;5116389;27;45494;-73
2024/01/04 09:19:19;;;;;;;;;3.67;2.00;;;;;14.78;49.47;99951.09;5118058;27;46065;-74
2024/01/04 09:21:46;;;;;;;;;2.00;2.00;;;;;14.89;49.56;99943.22;5117816;27;45379;-73
2024/01/04 09:24:12;;;;;;;;;3.00;3.00;;;;;14.96;48.99;99952.91;5117828;27;46135;-73
2024/01/04 09:26:42;;;;;;;;;7.25;5.00;;;;;15.02;49.35;99947.66;5117859;27;45190;-73
2024/01/04 09:29:08;;;;;;;;;3.33;2.00;;;;;15.10;49.00;99939.78;5117585;27;45550;-73
2024/01/04 09:31:34;;;;;;;;;4.00;3.25;;;;;15.25;48.71;99939.78;5097336;27;45395;-74
2024/01/04 09:34:00;;;;;;;;;4.00;3.00;;;;;15.43;48.74;99938.91;5097468;27;45537;-74
2024/01/04 09:36:26;;;;;;;;;3.33;2.00;;;;;15.57;48.13;99916.97;5097829;27;45428;-74
2024/01/04 09:38:51;;;;;;;;;1.00;1.00;;;;;15.66;47.55;99932.78;5097652;27;45494;-74
2024/01/04 09:41:25;;;;;;;;;3.00;2.00;;;;;15.68;47.30;99918.72;5096306;27;45354;-74
2024/01/04 09:43:56;;;;;;;;;11.00;8.25;;;;;15.82;47.59;99912.63;5098155;27;45437;-74
2024/01/04 09:46:25;;;;;;;;;4.00;3.33;;;;;15.73;47.26;99862.59;5097765;27;45492;-74
2024/01/04 09:49:03;;;;;;;;;9.67;6.33;;;;;16.26;45.73;99885.28;5097601;27;46323;-74
2024/01/04 09:51:34;;;;;;;;;1.00;1.00;;;;;16.35;46.16;99882.56;5097363;27;45344;-74
2024/01/04 09:54:04;;;;;;;;;2.33;2.00;;;;;16.37;45.87;99872.91;5096189;27;45482;-74
2024/01/04 09:56:32;;;;;;;;;5.00;3.00;;;;;16.39;46.06;99881.69;5097627;27;45264;-74
2024/01/04 09:58:58;;;;;;;;;2.00;2.00;;;;;16.33;46.16;99871.16;5097040;27;46245;-74
2024/01/04 10:01:35;;;;;;;;;2.33;2.00;;;;;16.27;46.25;99884.38;5098517;27;45409;-74
2024/01/04 10:04:13;;;;;;;;;4.67;3.00;;;;;15.94;45.84;99836.19;5100888;27;45486;-74
2024/01/04 10:06:51;;;;;;;;;1.50;1.00;;;;;16.13;46.36;99878.28;5100949;27;45219;-73
2024/01/04 10:09:28;;;;;;;;;2.00;1.00;;;;;16.17;46.24;99886.16;5100780;27;45385;-76
2024/01/04 10:11:57;;;;;;;;;2.00;2.00;;;;;16.21;46.13;99879.13;5119400;27;45397;-74
2024/01/04 10:14:27;;;;;;;;;1.00;1.00;;;;;16.27;45.95;99880.00;5121194;27;45827;-73
2024/01/04 10:16:56;;;;;;;;;2.67;2.00;;;;;16.36;45.98;99886.97;5121126;27;45924;-73
2024/01/04 10:19:23;;;;;;;;;2.00;1.00;;;;;16.53;45.93;99902.72;5120546;27;46159;-72
2024/01/04 10:21:48;;;;;;;;;3.00;1.00;;;;;16.56;45.15;99880.75;5120682;27;45413;-72
2024/01/04 10:24:20;;;;;;;;;2.00;2.00;;;;;16.63;43.63;99887.72;5120715;27;45362;-72
2024/01/04 10:26:59;;;;;;;;;1.00;1.00;;;;;16.61;43.89;99869.28;5120798;27;45309;-72
2024/01/04 10:29:26;;;;;;;;;2.00;2.00;;;;;16.88;44.46;99894.66;5120980;27;45489;-72
2024/01/04 10:32:10;;;;;;;;;2.00;1.00;;;;;17.01;44.83;99892.81;5121390;27;45486;-73
2024/01/04 10:34:37;;;;;;;;;3.00;2.00;;;;;17.15;44.14;99879.53;5121109;27;45356;-73
2024/01/04 10:37:14;;;;;;;;;5.67;4.00;;;;;17.30;44.29;99868.81;5120879;27;45485;-73
2024/01/04 10:39:41;;;;;;;;;4.67;4.00;;;;;17.34;43.80;99827.44;5118136;27;46074;-73
2024/01/04 10:42:09;;;;;;;;;6.00;5.00;;;;;17.82;43.64;99858.66;5120084;27;45350;-74
2024/01/04 10:44:35;;;;;;;;;50.50;41.75;;;;;18.07;43.23;99854.03;5117342;27;45410;-73
2024/01/04 10:47:03;;;;;;;;;6.67;6.00;;;;;18.23;42.75;99842.34;5120826;27;45500;-73
2024/01/04 10:49:29;;;;;;;;;5.00;5.00;;;;;18.41;41.85;99846.53;5120279;27;46218;-73
2024/01/04 10:51:58;;;;;;;;;5.33;4.67;;;;;18.59;41.81;99850.69;5120676;27;45237;-73
2024/01/04 10:54:32;;;;;;;;;3.00;2.33;;;;;18.75;41.83;99848.69;5121198;27;45570;-73
2024/01/04 10:57:02;;;;;;;;;3.33;3.33;;;;;18.71;40.75;99827.63;5120849;27;45252;-73
2024/01/04 10:59:29;;;;;;;;;1.33;1.33;;;;;18.67;41.15;99806.47;5120434;27;46280;-73
2024/01/04 11:01:59;;;;;;;;;1.00;1.00;;;;;18.88;41.16;99830.94;5120561;27;45380;-72
2024/01/04 11:04:30;;;;;;;;;2.00;2.00;;;;;18.85;41.30;99826.53;5120833;27;45466;-73
2024/01/04 11:06:57;;;;;;;;;2.00;2.00;;;;;18.69;41.25;99788.81;5121006;27;45299;-73
2024/01/04 11:09:23;;;;;;;;;2.00;2.00;;;;;18.85;40.88;99826.53;5120555;27;45965;-73
2024/01/04 11:11:53;;;;;;;;;4.00;2.00;;;;;18.81;40.59;99819.53;5119856;27;45428;-73
2024/01/04 11:14:23;;;;;;;;;4.00;4.00;;;;;18.80;40.63;99816.91;5120447;27;45226;-72
2024/01/04 11:17:05;;;;;;;;;1.67;0.00;;;;;18.72;40.45;99811.72;5120317;27;45210;-73
2024/01/04 11:19:41;;;;;;;;;3.33;2.00;;;;;18.64;40.49;99789.78;5119850;27;46088;-72
2024/01/04 11:22:43;;;;;;;;;1.00;1.00;;;;;18.67;40.67;99789.75;5120092;27;45368;-75
2024/01/04 11:25:37;;;;;;;;;8.33;6.33;;;;;18.66;40.75;99801.22;5120042;27;45324;-73
2024/01/04 11:28:04;;;;;;;;;9.00;6.00;;;;;18.42;41.08;99760.13;5120394;27;45474;-73
2024/01/04 11:30:31;;;;;;;;;3.00;3.00;;;;;18.58;41.28;99784.59;5120024;27;45483;-73
2024/01/04 11:32:57;;;;;;;;;6.00;5.67;;;;;18.55;41.25;99774.94;5119277;27;45518;-73
2024/01/04 11:35:23;;;;;;;;;3.00;3.00;;;;;18.66;41.44;99769.47;5119264;27;45284;-77
2024/01/04 11:37:52;;;;;;;;;3.00;2.00;;;;;18.69;41.13;99751.78;5118881;27;45496;-73
2024/01/04 11:40:29;;;;;;;;;2.00;1.00;;;;;18.82;41.48;99760.44;5120226;27;45496;-73
2024/01/04 11:42:55;;;;;;;;;5.00;3.33;;;;;18.70;40.83;99731.47;5117999;27;45627;-73
2024/01/04 11:45:23;;;;;;;;;3.67;3.67;;;;;18.91;41.00;99750.59;5119402;27;45401;-73
2024/01/04 11:47:52;;;;;;;;;4.33;4.33;;;;;18.75;40.75;99720.84;5119013;27;45450;-76
2024/01/04 11:50:21;;;;;;;;;4.67;4.00;;;;;18.99;40.66;99748.69;5118937;27;46119;-73
2024/01/04 11:52:47;;;;;;;;;4.00;3.00;;;;;18.80;41.11;99714.59;5119502;27;45428;-73
2024/01/04 11:55:26;;;;;;;;;11.33;10.67;;;;;18.94;41.33;99716.13;5119893;27;45512;-73
2024/01/04 11:58:08;;;;;;;;;3.00;1.67;;;;;19.18;41.07;99742.19;5119751;27;45311;-74
2024/01/04 12:00:38;;;;;;;;;2.00;2.00;;;;;19.30;41.09;99748.13;5118814;27;45461;-74